createdAt,value
2024-01-20T00:00:15.889Z,8.75
2024-01-20T00:02:44.676Z,9.50
2024-01-20T00:05:13.420Z,8.70
2024-01-20T00:07:41.566Z,7.20
2024-01-20T00:10:15.016Z,8.57
2024-01-20T00:12:43.872Z,9.75
2024-01-20T00:15:12.871Z,8.05
2024-01-20T00:17:41.354Z,7.30
2024-01-20T00:20:11.066Z,9.00
2024-01-20T00:22:38.866Z,8.60
2024-01-20T00:25:06.383Z,8.35
2024-01-20T00:27:34.674Z,8.98
2024-01-20T00:30:02.235Z,7.93
2024-01-20T00:32:29.893Z,8.33
2024-01-20T00:35:06.045Z,7.60
2024-01-20T00:37:36.602Z,8.52
2024-01-20T00:40:05.832Z,8.07
2024-01-20T00:42:33.224Z,9.35
2024-01-20T00:45:00.337Z,9.03
2024-01-20T00:47:27.137Z,8.93
2024-01-20T00:49:54.052Z,8.93
2024-01-20T00:52:20.952Z,8.57
2024-01-20T00:54:47.960Z,10.20
2024-01-20T00:57:14.826Z,9.07
2024-01-20T00:59:41.686Z,10.02
2024-01-20T01:02:08.874Z,8.95
2024-01-20T01:04:35.793Z,10.02
2024-01-20T01:07:02.698Z,8.90
2024-01-20T01:09:29.668Z,9.13
2024-01-20T01:11:56.550Z,10.23
2024-01-20T01:14:23.563Z,9.13
2024-01-20T01:16:50.570Z,10.32
2024-01-20T01:19:17.488Z,9.18
2024-01-20T01:21:44.426Z,8.60
2024-01-20T01:24:12.318Z,11.38
2024-01-20T01:26:39.386Z,11.07
2024-01-20T01:29:07.070Z,8.82
2024-01-20T01:31:34.405Z,9.73
2024-01-20T01:34:01.389Z,9.87
2024-01-20T01:36:28.282Z,9.63
2024-01-20T01:38:55.096Z,9.38
2024-01-20T01:41:22.092Z,8.85
2024-01-20T01:43:49.031Z,10.15
2024-01-20T01:46:15.993Z,9.10
2024-01-20T01:48:42.929Z,10.77
2024-01-20T01:51:10.177Z,10.30
2024-01-20T01:53:37.532Z,9.63
2024-01-20T01:56:06.417Z,10.40
2024-01-20T01:58:34.059Z,11.13
2024-01-20T02:01:01.674Z,10.32
2024-01-20T02:03:28.906Z,11.43
2024-01-20T02:05:56.121Z,10.57
2024-01-20T02:08:24.788Z,9.23
2024-01-20T02:10:51.946Z,10.70
2024-01-20T02:13:19.702Z,9.45
2024-01-20T02:15:47.160Z,8.73
2024-01-20T02:18:14.153Z,10.13
2024-01-20T02:20:41.224Z,8.57
2024-01-20T02:23:08.124Z,8.83
2024-01-20T02:25:34.932Z,9.60
2024-01-20T02:28:01.760Z,9.55
2024-01-20T02:30:28.717Z,10.80
2024-01-20T02:32:55.805Z,8.63
2024-01-20T02:35:22.862Z,11.53
2024-01-20T02:37:49.827Z,9.23
2024-01-20T02:40:17.402Z,10.13
2024-01-20T02:42:44.323Z,10.65
2024-01-20T02:45:11.343Z,9.73
2024-01-20T02:47:38.840Z,9.33
2024-01-20T02:50:06.740Z,11.15
2024-01-20T02:52:34.340Z,9.88
2024-01-20T02:55:01.217Z,10.07
2024-01-20T02:57:28.173Z,8.38
2024-01-20T02:59:55.084Z,10.10
2024-01-20T03:02:22.031Z,8.20
2024-01-20T03:04:48.890Z,10.02
2024-01-20T03:07:15.978Z,9.20
2024-01-20T03:09:42.969Z,8.73
2024-01-20T03:12:09.963Z,9.57
2024-01-20T03:14:37.066Z,10.25
2024-01-20T03:17:04.072Z,8.45
2024-01-20T03:19:30.988Z,9.75
2024-01-20T03:21:57.872Z,9.65
2024-01-20T03:24:25.810Z,7.43
2024-01-20T03:26:56.526Z,9.55
2024-01-20T03:29:24.932Z,11.13
2024-01-20T03:31:52.896Z,9.82
2024-01-20T03:34:20.246Z,8.00
2024-01-20T03:36:48.297Z,8.77
2024-01-20T03:39:15.100Z,8.10
2024-01-20T03:41:42.009Z,9.18
2024-01-20T03:44:09.433Z,10.40
2024-01-20T03:46:36.268Z,8.60
2024-01-20T03:49:03.928Z,9.03
2024-01-20T03:51:31.254Z,8.38
2024-01-20T03:53:58.164Z,9.75
2024-01-20T03:56:24.967Z,7.03
2024-01-20T03:58:51.784Z,9.40
2024-01-20T04:01:18.736Z,7.10
2024-01-20T04:03:45.636Z,9.38
2024-01-20T04:06:12.669Z,8.25
2024-01-20T04:08:39.496Z,9.30
2024-01-20T04:11:06.615Z,9.77
2024-01-20T04:13:33.481Z,8.97
2024-01-20T04:16:00.344Z,9.50
2024-01-20T04:18:27.387Z,7.75
2024-01-20T04:20:54.337Z,7.45
2024-01-20T04:23:21.244Z,7.60
2024-01-20T04:25:48.623Z,8.80
2024-01-20T04:28:15.448Z,7.43
2024-01-20T04:30:42.457Z,7.95
2024-01-20T04:33:09.408Z,8.35
2024-01-20T04:35:36.324Z,8.13
2024-01-20T04:38:03.367Z,7.57
2024-01-20T04:40:30.454Z,7.93
2024-01-20T04:42:57.349Z,7.90
2024-01-20T04:45:24.336Z,7.47
2024-01-20T04:47:51.316Z,8.55
2024-01-20T04:50:18.212Z,9.03
2024-01-20T04:52:45.048Z,7.55
2024-01-20T04:55:11.986Z,7.43
2024-01-20T04:57:38.914Z,7.88
2024-01-20T05:00:07.315Z,8.75
2024-01-20T05:02:36.934Z,9.77
2024-01-20T05:05:04.821Z,7.90
2024-01-20T05:07:31.838Z,8.70
2024-01-20T05:09:58.891Z,8.90
2024-01-20T05:12:26.758Z,8.63
2024-01-20T05:14:54.402Z,8.17
2024-01-20T05:17:21.537Z,8.57
2024-01-20T05:19:48.821Z,8.40
2024-01-20T05:22:17.834Z,8.35
2024-01-20T05:24:44.869Z,7.03
2024-01-20T05:27:12.264Z,7.70
2024-01-20T05:29:39.217Z,8.27
2024-01-20T05:32:06.249Z,7.55
2024-01-20T05:34:33.434Z,9.98
2024-01-20T05:37:00.525Z,7.03
2024-01-20T05:39:27.478Z,8.37
2024-01-20T05:41:54.392Z,9.05
2024-01-20T05:44:21.548Z,8.32
2024-01-20T05:46:48.423Z,8.38
2024-01-20T05:49:15.644Z,7.80
2024-01-20T05:51:42.589Z,8.07
2024-01-20T05:54:09.682Z,8.82
2024-01-20T05:56:36.812Z,7.88
2024-01-20T05:59:04.062Z,6.90
2024-01-20T06:01:31.237Z,8.07
2024-01-20T06:03:58.390Z,7.57
2024-01-20T06:06:25.742Z,8.55
2024-01-20T06:08:52.764Z,7.68
2024-01-20T06:11:19.623Z,7.45
2024-01-20T06:13:46.716Z,9.35
2024-01-20T06:16:14.078Z,8.00
2024-01-20T06:18:41.027Z,8.15
2024-01-20T06:21:09.478Z,8.43
2024-01-20T06:23:37.029Z,8.68
2024-01-20T06:26:04.422Z,7.65
2024-01-20T06:28:31.328Z,7.63
2024-01-20T06:30:58.188Z,8.02
2024-01-20T06:33:25.350Z,6.72
2024-01-20T06:35:52.572Z,8.30
2024-01-20T06:38:19.673Z,7.10
2024-01-20T06:40:46.505Z,8.10
2024-01-20T06:43:13.334Z,8.80
2024-01-20T06:45:41.051Z,8.38
2024-01-20T06:48:09.036Z,7.13
2024-01-20T06:50:41.071Z,6.90
2024-01-20T06:53:07.896Z,8.40
2024-01-20T06:55:34.915Z,6.30
2024-01-20T06:58:02.039Z,8.15
2024-01-20T07:00:28.896Z,6.53
2024-01-20T07:02:56.113Z,5.72
2024-01-20T07:05:23.011Z,7.60
2024-01-20T07:07:49.913Z,7.53
2024-01-20T07:10:16.993Z,6.82
2024-01-20T07:12:43.951Z,7.18
2024-01-20T07:15:11.470Z,5.97
2024-01-20T07:17:38.636Z,8.70
2024-01-20T07:20:05.978Z,8.43
2024-01-20T07:22:33.127Z,6.50
2024-01-20T07:25:00.275Z,7.43
2024-01-20T07:27:27.359Z,7.97
2024-01-20T07:29:54.235Z,7.67
2024-01-20T07:32:21.131Z,7.75
2024-01-20T07:34:48.115Z,7.53
2024-01-20T07:37:16.455Z,6.95
2024-01-20T07:39:44.026Z,6.72
2024-01-20T07:42:11.870Z,6.97
2024-01-20T07:44:38.919Z,7.28
2024-01-20T07:47:05.933Z,5.65
2024-01-20T07:49:33.294Z,5.40
2024-01-20T07:52:00.169Z,6.55
2024-01-20T07:54:27.208Z,8.33
2024-01-20T07:56:54.046Z,6.68
2024-01-20T07:59:21.069Z,6.30
2024-01-20T08:01:48.213Z,6.75
2024-01-20T08:04:16.116Z,7.05
2024-01-20T08:06:43.318Z,8.73
2024-01-20T08:09:11.674Z,7.28
2024-01-20T08:11:38.709Z,7.13
2024-01-20T08:14:05.741Z,7.85
2024-01-20T08:16:32.752Z,7.78
2024-01-20T08:19:00.068Z,7.63
2024-01-20T08:21:27.111Z,7.88
2024-01-20T08:23:54.333Z,7.82
2024-01-20T08:26:21.293Z,6.60
2024-01-20T08:28:48.335Z,7.03
2024-01-20T08:31:15.448Z,7.83
2024-01-20T08:33:43.894Z,7.72
2024-01-20T08:36:11.289Z,8.07
2024-01-20T08:38:38.338Z,6.75
2024-01-20T08:41:12.463Z,7.63
2024-01-20T08:43:46.049Z,6.40
2024-01-20T08:46:13.775Z,7.25
2024-01-20T08:48:41.867Z,5.97
2024-01-20T08:51:09.012Z,6.72
2024-01-20T08:53:35.937Z,8.13
2024-01-20T08:56:05.090Z,6.80
2024-01-20T08:58:32.153Z,7.45
2024-01-20T09:00:59.327Z,7.32
2024-01-20T09:03:26.589Z,7.28
2024-01-20T09:05:53.727Z,7.30
2024-01-20T09:08:20.613Z,7.60
2024-01-20T09:10:47.514Z,7.10
2024-01-20T09:13:14.387Z,7.05
2024-01-20T09:15:41.392Z,8.25
2024-01-20T09:18:09.218Z,6.95
2024-01-20T09:20:36.532Z,6.57
2024-01-20T09:23:04.614Z,6.80
2024-01-20T09:25:31.474Z,7.28
2024-01-20T09:27:58.402Z,6.55
2024-01-20T09:30:25.610Z,6.30
2024-01-20T09:32:52.809Z,8.33
2024-01-20T09:35:19.771Z,7.40
2024-01-20T09:37:46.670Z,8.23
2024-01-20T09:40:13.899Z,6.93
2024-01-20T09:42:41.519Z,7.20
2024-01-20T09:45:08.870Z,7.63
2024-01-20T09:47:36.659Z,6.80
2024-01-20T09:50:05.684Z,8.13
2024-01-20T09:52:36.285Z,8.32
2024-01-20T09:55:20.681Z,6.88
2024-01-20T09:57:50.293Z,6.80
2024-01-20T10:00:17.952Z,8.55
2024-01-20T10:02:48.176Z,8.50
2024-01-20T10:05:16.678Z,8.13
2024-01-20T10:07:44.403Z,6.93
2024-01-20T10:10:21.852Z,8.67
2024-01-20T10:12:53.005Z,6.75
2024-01-20T10:15:28.858Z,6.93
2024-01-20T10:17:58.702Z,7.30
2024-01-20T10:20:27.166Z,7.22
2024-01-20T10:22:54.310Z,7.33
2024-01-20T10:25:21.636Z,7.10
2024-01-20T10:27:50.855Z,7.38
2024-01-20T10:30:22.425Z,7.57
2024-01-20T10:33:03.317Z,8.13
2024-01-20T10:35:35.868Z,8.13
2024-01-20T10:38:08.811Z,7.18
2024-01-20T10:40:40.770Z,8.50
2024-01-20T10:43:17.153Z,7.78
2024-01-20T10:46:19.548Z,6.57
2024-01-20T10:48:52.102Z,7.33
2024-01-20T10:51:28.510Z,7.60
2024-01-20T10:53:58.827Z,7.25
2024-01-20T10:56:27.384Z,7.07
2024-01-20T10:59:10.634Z,8.35
2024-01-20T11:01:42.677Z,7.07
2024-01-20T11:04:09.882Z,6.68
2024-01-20T11:06:37.565Z,7.93
2024-01-20T11:09:05.441Z,7.40
2024-01-20T11:11:36.804Z,8.23
2024-01-20T11:14:04.140Z,7.07
2024-01-20T11:16:33.564Z,7.00
2024-01-20T11:19:13.514Z,7.13
2024-01-20T11:21:40.942Z,6.35
2024-01-20T11:24:08.495Z,7.00
2024-01-20T11:26:37.672Z,7.10
2024-01-20T11:29:09.793Z,7.57
2024-01-20T11:31:37.053Z,7.72
2024-01-20T11:34:07.526Z,6.32
2024-01-20T11:36:35.764Z,7.22
2024-01-20T11:39:04.854Z,6.57
2024-01-20T11:41:31.875Z,7.05
2024-01-20T11:43:58.758Z,7.85
2024-01-20T11:46:26.055Z,7.40
2024-01-20T11:48:53.896Z,6.15
2024-01-20T11:51:22.234Z,6.63
2024-01-20T11:53:49.941Z,5.60
2024-01-20T11:56:17.806Z,6.63
2024-01-20T11:58:45.060Z,6.78
2024-01-20T12:01:15.428Z,6.95
2024-01-20T12:03:42.936Z,6.77
2024-01-20T12:06:13.119Z,6.72
2024-01-20T12:08:43.536Z,6.90
2024-01-20T12:11:24.271Z,6.18
2024-01-20T12:13:51.367Z,6.57
2024-01-20T12:16:18.864Z,5.97
2024-01-20T12:18:46.199Z,6.00
2024-01-20T12:21:13.567Z,6.30
2024-01-20T12:23:41.448Z,6.32
2024-01-20T12:26:15.642Z,7.35
2024-01-20T12:28:48.083Z,6.70
2024-01-20T12:31:19.251Z,7.10
2024-01-20T12:33:48.636Z,5.25
2024-01-20T12:36:15.564Z,6.57
2024-01-20T12:38:42.451Z,6.30
2024-01-20T12:41:09.623Z,6.37
2024-01-20T12:43:36.697Z,6.78
2024-01-20T12:46:03.629Z,5.85
2024-01-20T12:48:30.686Z,5.05
2024-01-20T12:50:58.509Z,5.72
2024-01-20T12:53:25.526Z,5.13
2024-01-20T12:55:52.630Z,5.53
2024-01-20T12:58:19.523Z,5.32
2024-01-20T13:00:46.647Z,5.40
2024-01-20T13:03:13.648Z,5.75
2024-01-20T13:05:40.866Z,5.70
2024-01-20T13:08:08.149Z,5.40
2024-01-20T13:10:35.112Z,5.80
2024-01-20T13:13:02.496Z,5.85
2024-01-20T13:15:29.576Z,5.72
2024-01-20T13:17:56.654Z,5.70
2024-01-20T13:20:23.679Z,5.68
2024-01-20T13:22:50.770Z,4.97
2024-01-20T13:25:17.760Z,5.80
2024-01-20T13:27:44.804Z,5.55
2024-01-20T13:30:13.124Z,5.80
2024-01-20T13:32:40.905Z,6.50
2024-01-20T13:35:08.749Z,6.07
2024-01-20T13:37:35.726Z,6.32
2024-01-20T13:40:05.793Z,6.13
2024-01-20T13:42:33.007Z,5.33
2024-01-20T13:45:00.503Z,6.25
2024-01-20T13:47:27.658Z,6.13
2024-01-20T13:49:54.668Z,6.05
2024-01-20T13:52:22.042Z,5.90
2024-01-20T13:54:49.417Z,5.30
2024-01-20T13:57:16.531Z,5.20
2024-01-20T13:59:43.668Z,4.78
2024-01-20T14:02:10.543Z,5.28
2024-01-20T14:04:37.706Z,5.07
2024-01-20T14:07:06.338Z,4.47
2024-01-20T14:09:34.032Z,4.30
2024-01-20T14:12:01.219Z,5.97
2024-01-20T14:14:28.861Z,5.35
2024-01-20T14:16:57.558Z,4.47
2024-01-20T14:19:26.254Z,4.73
2024-01-20T14:21:53.487Z,5.28
2024-01-20T14:24:20.815Z,6.22
2024-01-20T14:26:48.405Z,4.28
2024-01-20T14:29:16.414Z,4.63
2024-01-20T14:31:51.108Z,4.20
2024-01-20T14:34:19.873Z,4.22
2024-01-20T14:36:48.786Z,4.47
2024-01-20T14:39:19.680Z,4.03
2024-01-20T14:41:47.232Z,4.43
2024-01-20T14:44:14.347Z,4.10
2024-01-20T14:46:41.686Z,4.70
2024-01-20T14:49:09.220Z,4.20
2024-01-20T14:51:36.382Z,4.65
2024-01-20T14:54:05.784Z,4.18
2024-01-20T14:56:37.237Z,4.47
2024-01-20T14:59:04.813Z,3.60
2024-01-20T15:01:32.750Z,4.05
2024-01-20T15:04:00.388Z,3.55
2024-01-20T15:06:28.593Z,3.58
2024-01-20T15:08:55.679Z,4.23
2024-01-20T15:11:23.222Z,4.00
2024-01-20T15:13:50.460Z,3.80
2024-01-20T15:16:18.221Z,3.85
2024-01-20T15:18:45.507Z,4.15
2024-01-20T15:21:12.649Z,4.57
2024-01-20T15:23:39.592Z,4.57
2024-01-20T15:26:06.564Z,4.32
2024-01-20T15:28:33.563Z,4.32
2024-01-20T15:31:00.454Z,4.20
2024-01-20T15:33:27.382Z,4.07
2024-01-20T15:35:54.571Z,4.28
2024-01-20T15:38:21.543Z,5.20
2024-01-20T15:40:48.468Z,4.10
2024-01-20T15:43:15.460Z,4.03
2024-01-20T15:45:42.546Z,4.30
2024-01-20T15:48:10.340Z,5.18
2024-01-20T15:50:37.480Z,4.75
2024-01-20T15:53:04.720Z,4.10
2024-01-20T15:55:31.718Z,4.22
2024-01-20T15:57:58.634Z,4.33
2024-01-20T16:00:26.058Z,3.90
2024-01-20T16:02:53.662Z,3.45
2024-01-20T16:05:20.470Z,4.18
2024-01-20T16:07:47.584Z,4.50
2024-01-20T16:10:14.623Z,3.70
2024-01-20T16:12:41.698Z,3.67
2024-01-20T16:15:12.206Z,3.85
2024-01-20T16:17:41.547Z,3.83
2024-01-20T16:20:09.933Z,4.22
2024-01-20T16:22:36.983Z,4.07
2024-01-20T16:25:04.271Z,4.22
2024-01-20T16:27:31.295Z,4.53
2024-01-20T16:29:58.270Z,3.53
2024-01-20T16:32:25.491Z,4.18
2024-01-20T16:34:52.497Z,3.80
2024-01-20T16:37:19.474Z,3.05
2024-01-20T16:39:46.405Z,3.88
2024-01-20T16:42:13.332Z,4.00
2024-01-20T16:44:40.224Z,4.90
2024-01-20T16:47:07.043Z,3.83
2024-01-20T16:49:34.261Z,4.55
2024-01-20T16:52:03.612Z,4.78
2024-01-20T16:54:30.885Z,4.85
2024-01-20T16:56:57.777Z,4.85
2024-01-20T16:59:24.701Z,4.87
2024-01-20T17:01:51.985Z,5.10
2024-01-20T17:04:19.111Z,4.97
2024-01-20T17:06:46.312Z,6.05
2024-01-20T17:09:14.704Z,5.50
2024-01-20T17:11:45.728Z,5.57
2024-01-20T17:14:17.429Z,4.57
2024-01-20T17:16:44.643Z,5.60
2024-01-20T17:19:12.325Z,6.13
2024-01-20T17:21:39.409Z,5.57
2024-01-20T17:24:06.436Z,4.50
2024-01-20T17:26:33.516Z,4.88
2024-01-20T17:29:01.361Z,4.80
2024-01-20T17:31:34.199Z,5.25
2024-01-20T17:34:02.172Z,4.60
2024-01-20T17:36:29.540Z,5.50
2024-01-20T17:38:59.468Z,5.05
2024-01-20T17:41:26.258Z,5.22
2024-01-20T17:43:53.157Z,5.22
2024-01-20T17:46:20.012Z,6.00
2024-01-20T17:48:47.025Z,5.00
2024-01-20T17:51:14.025Z,4.47
2024-01-20T17:53:40.897Z,4.03
2024-01-20T17:56:07.801Z,4.78
2024-01-20T17:58:35.462Z,6.13
2024-01-20T18:01:02.856Z,4.57
2024-01-20T18:03:30.200Z,4.45
2024-01-20T18:05:57.409Z,5.30
2024-01-20T18:08:25.578Z,4.80
2024-01-20T18:10:52.448Z,4.13
2024-01-20T18:13:19.475Z,5.73
2024-01-20T18:15:46.647Z,5.18
2024-01-20T18:18:14.027Z,5.40
2024-01-20T18:20:41.057Z,5.82
2024-01-20T18:23:08.001Z,4.80
2024-01-20T18:25:35.339Z,5.10
2024-01-20T18:28:02.296Z,5.15
2024-01-20T18:30:29.193Z,5.90
2024-01-20T18:32:56.227Z,5.05
2024-01-20T18:35:23.412Z,6.30
2024-01-20T18:37:50.664Z,5.53
2024-01-20T18:40:17.515Z,4.85
2024-01-20T18:42:47.170Z,5.07
2024-01-20T18:45:14.475Z,5.15
2024-01-20T18:47:45.974Z,5.28
2024-01-20T18:50:14.613Z,5.80
2024-01-20T18:52:41.796Z,4.70
2024-01-20T18:55:09.967Z,5.50
2024-01-20T18:57:37.248Z,4.85
2024-01-20T19:00:05.760Z,5.70
2024-01-20T19:02:32.991Z,5.50
2024-01-20T19:05:00.088Z,4.93
2024-01-20T19:07:27.146Z,5.88
2024-01-20T19:09:54.061Z,4.50
2024-01-20T19:12:21.491Z,5.03
2024-01-20T19:14:49.240Z,4.50
2024-01-20T19:17:16.332Z,4.78
2024-01-20T19:19:46.505Z,6.35
2024-01-20T19:22:13.649Z,4.60
2024-01-20T19:24:40.797Z,5.22
2024-01-20T19:27:11.178Z,4.23
2024-01-20T19:29:38.282Z,4.80
2024-01-20T19:32:05.831Z,4.68
2024-01-20T19:34:33.254Z,4.82
2024-01-20T19:37:00.420Z,4.50
2024-01-20T19:39:27.379Z,4.53
2024-01-20T19:41:54.333Z,5.10
2024-01-20T19:44:22.621Z,5.32
2024-01-20T19:46:49.579Z,4.18
2024-01-20T19:49:19.653Z,5.57
2024-01-20T19:51:46.650Z,4.43
2024-01-20T19:54:13.696Z,4.97
2024-01-20T19:56:47.165Z,4.65
2024-01-20T19:59:16.929Z,4.50
2024-01-20T20:01:47.670Z,4.88
2024-01-20T20:04:18.982Z,4.33
2024-01-20T20:06:48.013Z,5.50
2024-01-20T20:09:18.970Z,5.22
2024-01-20T20:11:46.004Z,5.82
2024-01-20T20:14:13.738Z,4.88
2024-01-20T20:16:41.464Z,5.27
2024-01-20T20:19:09.168Z,5.40
2024-01-20T20:21:36.182Z,6.15
2024-01-20T20:24:03.226Z,5.97
2024-01-20T20:26:31.178Z,5.68
2024-01-20T20:28:57.956Z,5.53
2024-01-20T20:31:27.645Z,4.90
2024-01-20T20:33:55.338Z,4.18
2024-01-20T20:36:22.593Z,5.15
2024-01-20T20:38:49.669Z,5.15
2024-01-20T20:41:16.588Z,4.77
2024-01-20T20:43:43.639Z,4.40
2024-01-20T20:46:10.925Z,5.88
2024-01-20T20:48:37.840Z,6.00
2024-01-20T20:51:05.103Z,5.10
2024-01-20T20:53:32.100Z,4.60
2024-01-20T20:55:59.653Z,4.63
2024-01-20T20:58:29.749Z,6.35
2024-01-20T21:00:56.854Z,5.80
2024-01-20T21:03:23.983Z,5.70
2024-01-20T21:05:51.127Z,6.03
2024-01-20T21:08:18.103Z,5.47
2024-01-20T21:10:45.137Z,5.20
2024-01-20T21:13:12.079Z,4.93
2024-01-20T21:15:39.391Z,5.18
2024-01-20T21:18:06.463Z,4.70
2024-01-20T21:20:33.397Z,6.22
2024-01-20T21:23:00.189Z,5.90
2024-01-20T21:25:27.082Z,4.93
2024-01-20T21:27:53.918Z,5.57
2024-01-20T21:30:22.253Z,5.40
2024-01-20T21:32:49.303Z,5.55
2024-01-20T21:35:16.400Z,4.80
2024-01-20T21:37:45.534Z,4.97
2024-01-20T21:40:13.791Z,4.82
2024-01-20T21:42:40.770Z,5.13
2024-01-20T21:45:08.447Z,4.20
2024-01-20T21:47:35.358Z,4.90
2024-01-20T21:50:02.349Z,5.00
2024-01-20T21:52:29.154Z,5.47
2024-01-20T21:54:57.100Z,4.70
2024-01-20T21:57:24.186Z,5.75
2024-01-20T21:59:51.162Z,4.93
2024-01-20T22:02:18.056Z,4.78
2024-01-20T22:04:44.968Z,4.70
2024-01-20T22:07:11.848Z,4.80
2024-01-20T22:09:38.723Z,4.03
2024-01-20T22:12:05.866Z,6.05
2024-01-20T22:14:32.802Z,3.83
2024-01-20T22:16:59.648Z,4.25
2024-01-20T22:19:26.820Z,4.33
2024-01-20T22:21:53.684Z,4.53
2024-01-20T22:24:20.817Z,5.15
2024-01-20T22:26:47.695Z,5.28
2024-01-20T22:29:23.404Z,5.13
2024-01-20T22:31:55.697Z,5.23
2024-01-20T22:34:23.438Z,5.38
2024-01-20T22:36:50.740Z,4.20
2024-01-20T22:39:18.309Z,5.60
2024-01-20T22:41:45.200Z,4.75
2024-01-20T22:44:12.561Z,5.10
2024-01-20T22:46:39.475Z,3.85
2024-01-20T22:49:06.436Z,4.80
2024-01-20T22:51:33.603Z,4.55
2024-01-20T22:54:00.938Z,4.20
2024-01-20T22:56:27.704Z,3.77
2024-01-20T22:58:54.545Z,4.32
2024-01-20T23:01:21.538Z,4.38
2024-01-20T23:03:48.601Z,4.30
2024-01-20T23:06:15.691Z,3.90
2024-01-20T23:08:43.172Z,4.37
2024-01-20T23:11:09.964Z,4.15
2024-01-20T23:13:36.992Z,4.82
2024-01-20T23:16:04.011Z,4.40
2024-01-20T23:18:30.917Z,4.47
2024-01-20T23:20:57.906Z,4.20
2024-01-20T23:23:24.962Z,4.70
2024-01-20T23:25:51.806Z,4.30
2024-01-20T23:28:18.554Z,4.35
2024-01-20T23:30:45.633Z,3.45
2024-01-20T23:33:13.019Z,4.47
2024-01-20T23:35:40.054Z,3.97
2024-01-20T23:38:06.939Z,3.72
2024-01-20T23:40:33.755Z,4.13
2024-01-20T23:43:00.666Z,4.10
2024-01-20T23:45:28.631Z,4.03
2024-01-20T23:47:56.919Z,3.70
2024-01-20T23:50:23.882Z,2.88
2024-01-20T23:52:50.843Z,3.60
2024-01-20T23:55:17.634Z,3.42
2024-01-20T23:57:45.251Z,3.23
